Time;durP1;ratioP1;P1;durP2;ratioP2;P2;SDS_P1;SDS_P2;PMS_P1;PMS_P2;Temp;Humidity;BMP_temperature;BMP_pressure;BME280_temperature;BME280_humidity;BME280_pressure;Samples;Min_cycle;Max_cycle;Signal;HPM_P1;HPM_P2
2022/12/01 00:01:10;;;;;;;23.80;10.20;;;8.10;99.90;;;;;;5025160;28;20468;-71
2022/12/01 00:03:36;;;;;;;16.33;9.20;;;8.10;99.90;;;;;;5025020;28;20455;-71
2022/12/01 00:06:04;;;;;;;19.57;10.40;;;8.10;99.90;;;;;;5011638;28;20506;-71
2022/12/01 00:08:31;;;;;;;15.40;9.60;;;8.10;99.90;;;;;;5009632;28;20483;-70
2022/12/01 00:11:08;;;;;;;17.07;10.40;;;8.10;99.90;;;;;;5010092;28;20470;-71
2022/12/01 00:13:34;;;;;;;14.77;9.43;;;8.10;99.90;;;;;;5016704;28;20459;-71
2022/12/01 00:16:15;;;;;;;18.00;9.37;;;8.10;99.90;;;;;;5026945;28;20485;-71
2022/12/01 00:18:40;;;;;;;13.17;8.77;;;8.10;99.90;;;;;;5023961;28;20502;-71
2022/12/01 00:21:13;;;;;;;12.67;7.67;;;8.10;99.90;;;;;;5030461;28;20955;-70
2022/12/01 00:23:42;;;;;;;14.70;8.80;;;8.10;99.90;;;;;;5029348;28;20216;-71
2022/12/01 00:26:07;;;;;;;18.53;9.47;;;8.10;99.90;;;;;;5019994;28;20472;-72
2022/12/01 00:28:33;;;;;;;13.00;8.03;;;8.10;99.90;;;;;;5025977;28;20454;-71
2022/12/01 00:30:59;;;;;;;15.60;7.87;;;8.10;99.90;;;;;;5023587;28;20303;-72
2022/12/01 00:33:24;;;;;;;17.17;8.27;;;8.10;99.90;;;;;;5020495;28;20320;-71
2022/12/01 00:35:57;;;;;;;10.67;7.20;;;8.10;99.90;;;;;;5021382;28;20244;-71
2022/12/01 00:38:22;;;;;;;12.50;8.67;;;8.10;99.90;;;;;;5017962;28;20220;-72
2022/12/01 00:40:48;;;;;;;12.77;8.10;;;8.10;99.90;;;;;;5029525;28;20481;-71
2022/12/01 00:43:14;;;;;;;15.13;8.57;;;8.10;99.90;;;;;;5008982;28;20331;-71
2022/12/01 00:45:39;;;;;;;14.10;7.83;;;8.10;99.90;;;;;;5009249;28;20227;-71
2022/12/01 00:48:05;;;;;;;12.70;8.00;;;8.10;99.90;;;;;;5012895;28;20582;-71
2022/12/01 00:50:31;;;;;;;14.37;8.33;;;8.10;99.90;;;;;;5018131;28;20690;-71
2022/12/01 00:52:56;;;;;;;15.33;8.20;;;8.10;99.90;;;;;;5020322;28;20220;-71
2022/12/01 00:55:22;;;;;;;13.37;8.40;;;8.10;99.90;;;;;;5024866;28;20229;-71
2022/12/01 00:57:48;;;;;;;14.10;8.30;;;8.10;99.90;;;;;;5021719;28;20217;-71
2022/12/01 01:00:14;;;;;;;13.60;8.37;;;8.10;99.90;;;;;;5018349;28;20223;-71
2022/12/01 01:02:40;;;;;;;15.30;8.60;;;8.10;99.90;;;;;;5016486;28;20220;-71
2022/12/01 01:05:06;;;;;;;16.00;8.03;;;8.10;99.90;;;;;;5013140;28;20463;-71
2022/12/01 01:07:31;;;;;;;13.03;7.60;;;8.10;99.90;;;;;;5001606;28;20232;-71
2022/12/01 01:09:57;;;;;;;15.50;8.50;;;8.10;99.90;;;;;;5017676;28;20462;-71
2022/12/01 01:12:23;;;;;;;11.83;7.40;;;8.10;99.90;;;;;;5023411;28;20228;-71
2022/12/01 01:14:48;;;;;;;15.70;8.33;;;8.00;99.90;;;;;;5025028;28;20216;-71
2022/12/01 01:17:14;;;;;;;14.40;8.20;;;8.00;99.90;;;;;;5027937;28;20220;-71
2022/12/01 01:19:40;;;;;;;13.07;7.57;;;8.00;99.90;;;;;;5027889;28;20220;-71
2022/12/01 01:22:05;;;;;;;17.40;8.97;;;8.00;99.90;;;;;;5020500;28;20223;-71
2022/12/01 01:24:31;;;;;;;10.80;6.60;;;8.00;99.90;;;;;;5010373;28;20220;-71
2022/12/01 01:26:57;;;;;;;16.60;8.70;;;8.00;99.90;;;;;;5028793;28;20231;-71
2022/12/01 01:29:22;;;;;;;14.10;8.53;;;7.90;99.90;;;;;;5030790;28;20308;-72
2022/12/01 01:31:48;;;;;;;14.50;7.60;;;7.90;99.90;;;;;;5031761;28;20227;-71
2022/12/01 01:34:13;;;;;;;12.17;7.53;;;7.90;99.90;;;;;;5018216;28;20216;-71
2022/12/01 01:36:39;;;;;;;14.53;7.40;;;8.00;99.90;;;;;;5030003;28;20223;-71
2022/12/01 01:39:05;;;;;;;16.70;8.63;;;7.90;99.90;;;;;;5028488;28;20266;-69
2022/12/01 01:41:30;;;;;;;11.13;6.80;;;7.90;99.90;;;;;;5023225;28;20280;-71
2022/12/01 01:44:04;;;;;;;13.00;7.97;;;7.90;99.90;;;;;;5033445;28;20251;-68
2022/12/01 01:46:32;;;;;;;11.47;7.47;;;7.90;99.90;;;;;;5032150;28;20228;-71
2022/12/01 01:49:06;;;;;;;16.47;8.17;;;7.80;99.90;;;;;;5027945;28;20452;-72
2022/12/01 01:51:35;;;;;;;12.00;7.20;;;7.80;99.90;;;;;;5025573;28;20449;-71
2022/12/01 01:54:14;;;;;;;13.77;7.53;;;7.80;99.90;;;;;;5032023;28;20486;-71
2022/12/01 01:56:42;;;;;;;13.33;8.17;;;7.80;99.90;;;;;;5026107;28;20459;-70
2022/12/01 01:59:10;;;;;;;14.23;7.97;;;7.80;99.90;;;;;;5020293;28;20498;-70
2022/12/01 02:01:36;;;;;;;15.13;8.57;;;7.80;99.90;;;;;;5007131;28;20504;-71
2022/12/01 02:04:02;;;;;;;15.03;7.80;;;7.70;99.90;;;;;;5026050;28;20456;-70
2022/12/01 02:06:27;;;;;;;13.57;8.17;;;7.60;99.90;;;;;;5031090;28;20489;-71
2022/12/01 02:08:53;;;;;;;11.37;6.97;;;7.60;99.90;;;;;;5021357;28;20452;-71
2022/12/01 02:11:26;;;;;;;12.90;6.30;;;7.60;99.90;;;;;;5024561;28;20217;-70
2022/12/01 02:14:16;;;;;;;13.87;6.87;;;7.60;99.90;;;;;;5026527;28;20241;-70
2022/12/01 02:17:02;;;;;;;9.60;5.70;;;7.60;99.90;;;;;;5021101;28;20463;-71
2022/12/01 02:19:51;;;;;;;12.03;6.50;;;7.50;99.90;;;;;;5026284;28;20448;-73
2022/12/01 02:23:05;;;;;;;10.50;6.40;;;7.50;99.90;;;;;;5023566;28;20468;-71
2022/12/01 02:26:03;;;;;;;11.00;5.97;;;7.50;99.90;;;;;;4973950;28;20499;-71
2022/12/01 02:29:00;;;;;;;13.70;7.23;;;7.50;99.90;;;;;;5027200;28;20443;-71
2022/12/01 02:31:49;;;;;;;10.07;5.87;;;7.40;99.90;;;;;;5022474;28;20438;-71
2022/12/01 02:34:26;;;;;;;11.20;7.23;;;7.40;99.90;;;;;;5018904;28;20520;-71
2022/12/01 02:37:07;;;;;;;13.60;7.90;;;7.40;99.90;;;;;;5032910;28;20454;-71
2022/12/01 02:39:40;;;;;;;13.87;7.67;;;7.20;99.90;;;;;;5011327;28;20451;-71
2022/12/01 02:43:04;;;;;;;14.07;8.27;;;7.20;99.90;;;;;;5023271;28;20458;-70
2022/12/01 02:45:12;;;;;;;18.33;8.17;;;7.20;99.90;;;;;;5027767;28;20501;-71
2022/12/01 02:47:40;;;;;;;14.80;7.93;;;7.20;99.90;;;;;;5014146;28;20467;-70
2022/12/01 02:50:08;;;;;;;15.97;7.80;;;7.10;99.90;;;;;;5006260;28;20447;-70
2022/12/01 02:52:35;;;;;;;13.47;7.60;;;7.10;99.90;;;;;;5032740;28;20480;-71
2022/12/01 02:55:01;;;;;;;15.50;8.50;;;7.20;99.90;;;;;;5011659;28;20480;-71
2022/12/01 02:57:28;;;;;;;19.30;8.70;;;7.20;99.90;;;;;;5027310;28;20467;-71
2022/12/01 02:59:55;;;;;;;14.37;8.70;;;7.10;99.90;;;;;;5033188;28;20274;-71
2022/12/01 03:02:33;;;;;;;20.10;8.97;;;7.10;99.90;;;;;;5004632;28;20469;-73
2022/12/01 03:04:58;;;;;;;16.93;8.73;;;7.10;99.90;;;;;;5035006;28;20461;-70
2022/12/01 03:08:00;;;;;;;12.23;7.23;;;7.00;99.90;;;;;;5027220;28;20476;-71
2022/12/01 03:10:40;;;;;;;17.40;8.87;;;7.00;99.90;;;;;;5015408;28;20417;-70
2022/12/01 03:13:34;;;;;;;13.13;8.17;;;7.00;99.90;;;;;;5028748;28;20456;-71
2022/12/01 03:16:08;;;;;;;13.40;7.47;;;7.00;99.90;;;;;;5021852;28;20475;-72
2022/12/01 03:18:42;;;;;;;16.77;9.30;;;7.00;99.90;;;;;;5030652;28;20451;-71
2022/12/01 03:21:30;;;;;;;18.50;9.00;;;7.10;99.90;;;;;;5026676;28;20451;-69
2022/12/01 03:24:02;;;;;;;15.13;8.17;;;7.10;99.90;;;;;;5029524;28;20591;-71
2022/12/01 03:26:30;;;;;;;28.53;10.37;;;7.10;99.90;;;;;;5010408;28;20460;-71
2022/12/01 03:29:05;;;;;;;15.63;7.87;;;7.10;99.90;;;;;;5018414;28;20455;-71
2022/12/01 03:31:36;;;;;;;20.13;10.00;;;7.10;99.90;;;;;;5018111;28;20461;-71
2022/12/01 03:34:11;;;;;;;22.27;9.47;;;7.00;99.90;;;;;;5024540;28;20458;-71
2022/12/01 03:37:00;;;;;;;16.93;8.60;;;7.00;99.90;;;;;;5028349;28;20458;-71
2022/12/01 03:39:33;;;;;;;22.17;8.77;;;7.00;99.90;;;;;;5022041;28;20451;-71
2022/12/01 03:42:10;;;;;;;25.20;11.50;;;7.00;99.90;;;;;;5019527;28;21017;-70
2022/12/01 03:44:46;;;;;;;18.17;9.87;;;6.90;99.90;;;;;;5010669;28;20464;-71
2022/12/01 03:47:19;;;;;;;20.63;10.40;;;6.90;99.90;;;;;;5012431;28;20474;-71
2022/12/01 03:49:47;;;;;;;21.50;10.70;;;6.90;99.90;;;;;;5027356;28;20452;-71
2022/12/01 03:52:18;;;;;;;19.87;11.13;;;6.80;99.90;;;;;;5017306;28;20452;-71
2022/12/01 03:54:51;;;;;;;18.87;8.27;;;6.80;99.90;;;;;;5018316;28;20589;-70
2022/12/01 03:57:22;;;;;;;21.93;10.10;;;6.80;99.90;;;;;;5029251;28;20454;-71
2022/12/01 03:59:48;;;;;;;20.87;10.00;;;6.80;99.90;;;;;;5030850;28;20534;-71
2022/12/01 04:02:15;;;;;;;26.90;10.60;;;6.70;99.90;;;;;;5018724;28;20594;-71
2022/12/01 04:04:41;;;;;;;20.60;10.10;;;6.70;99.90;;;;;;5023664;28;20534;-70
2022/12/01 04:07:12;;;;;;;24.07;11.23;;;6.70;99.90;;;;;;5027900;28;20511;-71
2022/12/01 04:09:39;;;;;;;18.27;9.30;;;6.60;99.90;;;;;;5018201;28;20224;-71
2022/12/01 04:14:50;;;;;;;23.07;11.50;;;6.70;99.90;;;;;;5017623;28;20455;-70
2022/12/01 04:17:15;;;;;;;18.37;10.50;;;6.60;99.90;;;;;;5003874;28;20452;-70
2022/12/01 04:19:41;;;;;;;21.87;10.73;;;6.60;99.90;;;;;;5021296;28;20225;-71
2022/12/01 04:22:06;;;;;;;25.00;10.90;;;6.50;99.90;;;;;;5013377;28;20219;-71
2022/12/01 04:24:32;;;;;;;17.33;9.93;;;6.50;99.90;;;;;;5028941;28;20212;-70
2022/12/01 04:26:58;;;;;;;25.30;11.90;;;6.60;99.90;;;;;;5027477;28;20727;-70
2022/12/01 04:29:23;;;;;;;24.03;11.30;;;6.60;99.90;;;;;;5028948;28;20231;-71
2022/12/01 04:31:49;;;;;;;20.87;10.67;;;6.60;99.90;;;;;;5029295;28;20224;-71
2022/12/01 04:34:14;;;;;;;27.37;11.07;;;6.50;99.90;;;;;;5020930;28;20231;-72
2022/12/01 04:36:40;;;;;;;20.17;10.57;;;6.60;99.90;;;;;;5028384;28;20220;-71
2022/12/01 04:39:06;;;;;;;22.40;11.97;;;6.60;99.90;;;;;;5023586;28;20322;-69
2022/12/01 04:41:31;;;;;;;19.77;10.50;;;6.50;99.90;;;;;;5024151;28;20220;-71
2022/12/01 04:43:57;;;;;;;20.50;10.60;;;6.60;99.90;;;;;;5012904;28;20718;-72
2022/12/01 04:46:23;;;;;;;24.47;11.67;;;6.60;99.90;;;;;;5003426;28;20225;-71
2022/12/01 04:48:49;;;;;;;24.97;12.77;;;6.60;99.90;;;;;;5028386;28;20316;-71
2022/12/01 04:51:15;;;;;;;22.07;11.27;;;6.60;99.90;;;;;;5026801;28;20534;-72
2022/12/01 04:53:40;;;;;;;24.70;10.60;;;6.60;99.90;;;;;;5012446;28;20216;-71
2022/12/01 04:56:06;;;;;;;25.13;12.33;;;6.50;99.90;;;;;;5023420;28;20607;-71
2022/12/01 04:58:33;;;;;;;26.97;12.07;;;6.50;99.90;;;;;;5012223;28;20335;-71
2022/12/01 05:01:04;;;;;;;23.93;11.67;;;6.50;99.90;;;;;;5011136;28;20724;-71
2022/12/01 05:03:30;;;;;;;24.80;11.60;;;6.40;99.90;;;;;;5027001;28;20477;-70
2022/12/01 05:06:05;;;;;;;18.17;10.50;;;6.40;99.90;;;;;;5005970;28;21077;-72
2022/12/01 05:08:31;;;;;;;27.30;10.30;;;6.40;99.90;;;;;;5010733;28;20948;-71
2022/12/01 05:10:56;;;;;;;22.80;10.70;;;6.40;99.90;;;;;;5019083;28;20538;-71
2022/12/01 05:13:23;;;;;;;28.97;13.40;;;6.40;99.90;;;;;;5020336;28;20539;-71
2022/12/01 05:15:48;;;;;;;19.57;9.73;;;6.50;99.90;;;;;;5025030;28;20670;-72
2022/12/01 05:18:14;;;;;;;20.63;10.90;;;6.50;99.90;;;;;;5012761;28;20551;-71
2022/12/01 05:23:38;;;;;;;21.13;9.83;;;6.50;99.90;;;;;;5027453;28;20217;-71
2022/12/01 05:26:08;;;;;;;23.03;11.37;;;6.50;99.90;;;;;;5028290;28;20482;-70
2022/12/01 05:28:34;;;;;;;19.97;10.93;;;6.40;99.90;;;;;;5018558;28;20225;-71
2022/12/01 05:31:00;;;;;;;23.83;11.80;;;6.30;99.90;;;;;;5020696;28;20505;-71
2022/12/01 05:33:27;;;;;;;22.63;10.63;;;6.40;99.90;;;;;;5030203;28;22078;-71
2022/12/01 05:35:53;;;;;;;19.37;10.50;;;6.30;99.90;;;;;;5012082;28;20219;-71
2022/12/01 05:38:19;;;;;;;22.60;11.00;;;6.40;99.90;;;;;;5002343;28;20468;-71
2022/12/01 05:40:55;;;;;;;19.00;9.70;;;6.40;99.90;;;;;;5004896;28;20213;-71
2022/12/01 05:43:21;;;;;;;20.20;11.17;;;6.30;99.90;;;;;;5009757;28;20987;-71
2022/12/01 05:45:48;;;;;;;24.47;11.40;;;6.30;99.90;;;;;;5009611;28;20470;-71
2022/12/01 05:48:15;;;;;;;23.47;11.80;;;6.30;99.90;;;;;;5020347;28;20487;-71
2022/12/01 05:50:41;;;;;;;22.93;11.97;;;6.30;99.90;;;;;;5025464;28;20451;-72
2022/12/01 05:53:07;;;;;;;24.80;11.43;;;6.30;99.90;;;;;;5008758;28;20464;-71
2022/12/01 05:55:33;;;;;;;16.00;9.33;;;6.30;99.90;;;;;;5016198;28;20266;-71
2022/12/01 05:57:59;;;;;;;22.27;10.23;;;6.20;99.90;;;;;;5023371;28;20256;-72
2022/12/01 06:00:25;;;;;;;21.03;9.40;;;6.20;99.90;;;;;;5012500;28;20463;-71
2022/12/01 06:02:51;;;;;;;20.80;10.17;;;6.20;99.90;;;;;;5027279;28;20550;-71
2022/12/01 06:05:16;;;;;;;23.00;9.70;;;6.10;99.90;;;;;;5026206;28;20686;-71
2022/12/01 06:07:42;;;;;;;24.40;9.90;;;6.20;99.90;;;;;;5022718;28;20279;-71
2022/12/01 06:10:09;;;;;;;21.87;10.70;;;6.30;99.90;;;;;;5006680;28;20619;-71
2022/12/01 06:12:35;;;;;;;20.10;8.83;;;6.20;99.90;;;;;;5001399;28;20467;-71
2022/12/01 06:15:01;;;;;;;22.80;11.20;;;6.10;99.90;;;;;;5015375;28;20451;-71
2022/12/01 06:17:27;;;;;;;20.10;11.00;;;6.10;99.90;;;;;;5027554;28;20503;-71
2022/12/01 06:19:52;;;;;;;18.07;9.77;;;6.10;99.90;;;;;;5011837;28;20625;-72
2022/12/01 06:22:18;;;;;;;25.57;10.60;;;6.10;99.90;;;;;;5023841;28;20641;-71
2022/12/01 06:24:44;;;;;;;18.53;9.60;;;6.10;99.90;;;;;;5024504;28;20240;-72
2022/12/01 06:27:09;;;;;;;19.07;10.00;;;6.00;99.90;;;;;;5030092;28;20244;-71
2022/12/01 06:29:35;;;;;;;16.40;8.83;;;6.00;99.90;;;;;;5019881;28;20247;-72
2022/12/01 06:32:00;;;;;;;20.63;11.03;;;6.10;99.90;;;;;;5013174;28;20274;-71
2022/12/01 06:34:26;;;;;;;20.70;11.13;;;6.10;99.90;;;;;;5028740;28;20228;-71
2022/12/01 06:36:52;;;;;;;21.90;11.33;;;6.10;99.90;;;;;;5016180;28;20235;-71
2022/12/01 06:39:17;;;;;;;20.87;10.90;;;6.10;99.90;;;;;;5027146;28;20311;-71
2022/12/01 06:41:43;;;;;;;21.90;12.17;;;6.10;99.90;;;;;;5028510;28;20253;-71
2022/12/01 06:44:09;;;;;;;23.70;10.77;;;6.10;99.90;;;;;;5030928;28;20248;-71
2022/12/01 06:46:35;;;;;;;19.00;11.17;;;6.10;99.90;;;;;;5023832;28;20255;-71
2022/12/01 06:49:01;;;;;;;22.77;10.83;;;6.10;99.90;;;;;;5022721;28;20464;-71
2022/12/01 06:51:27;;;;;;;25.63;12.30;;;6.10;99.90;;;;;;5012724;28;20228;-71
2022/12/01 06:53:54;;;;;;;22.23;12.30;;;6.10;99.90;;;;;;5008084;28;20256;-71
2022/12/01 06:56:20;;;;;;;23.80;10.40;;;6.10;99.90;;;;;;5020020;28;20499;-71
2022/12/01 06:58:47;;;;;;;25.30;12.17;;;6.10;99.90;;;;;;5012611;28;20959;-71
2022/12/01 07:01:13;;;;;;;21.17;10.20;;;6.10;99.90;;;;;;5005949;28;20481;-72
2022/12/01 07:03:39;;;;;;;21.70;11.23;;;6.10;99.90;;;;;;5031496;28;20447;-71
2022/12/01 07:06:05;;;;;;;25.37;11.40;;;6.10;99.90;;;;;;5025466;28;20244;-71
2022/12/01 07:08:32;;;;;;;27.17;13.50;;;6.00;99.90;;;;;;5026004;28;20455;-71
2022/12/01 07:10:59;;;;;;;24.73;11.90;;;6.00;99.90;;;;;;5022117;28;20487;-71
2022/12/01 07:13:24;;;;;;;24.00;11.30;;;5.90;99.90;;;;;;5006857;28;20697;-73
2022/12/01 07:15:50;;;;;;;20.90;10.33;;;6.00;99.90;;;;;;5026826;28;20452;-71
2022/12/01 07:18:16;;;;;;;18.77;10.13;;;5.90;99.90;;;;;;5021919;28;20688;-71
2022/12/01 07:20:42;;;;;;;24.30;11.47;;;5.90;99.90;;;;;;5004799;28;20262;-70
2022/12/01 07:23:07;;;;;;;18.57;10.30;;;5.80;99.90;;;;;;5011516;28;20470;-72
2022/12/01 07:25:33;;;;;;;22.93;11.83;;;5.80;99.90;;;;;;5014746;28;20672;-71
2022/12/01 07:27:59;;;;;;;24.97;10.93;;;5.80;99.90;;;;;;5013444;28;20240;-72
2022/12/01 07:30:24;;;;;;;22.60;12.73;;;5.80;99.90;;;;;;5024167;28;20255;-71
2022/12/01 07:32:50;;;;;;;22.67;11.43;;;5.90;99.90;;;;;;5022374;28;20224;-71
2022/12/01 07:35:16;;;;;;;27.07;12.53;;;5.80;99.90;;;;;;5009692;28;20224;-71
2022/12/01 07:37:41;;;;;;;22.33;11.53;;;5.80;99.90;;;;;;5021934;28;20225;-71
2022/12/01 07:40:09;;;;;;;25.70;12.13;;;5.90;99.90;;;;;;5021962;28;20228;-71
2022/12/01 07:42:34;;;;;;;22.57;10.73;;;5.90;99.90;;;;;;5018078;28;20231;-71
2022/12/01 07:45:00;;;;;;;20.93;11.20;;;5.90;99.90;;;;;;5010306;28;20459;-71
2022/12/01 07:47:26;;;;;;;25.50;13.00;;;5.80;99.90;;;;;;5024154;28;20235;-71
2022/12/01 07:49:51;;;;;;;22.93;11.57;;;5.90;99.90;;;;;;5030291;28;20224;-71
2022/12/01 07:52:17;;;;;;;26.47;11.17;;;5.90;99.90;;;;;;5022773;28;20263;-71
2022/12/01 07:54:43;;;;;;;27.00;11.87;;;5.90;99.90;;;;;;5026456;28;20228;-71
2022/12/01 07:57:08;;;;;;;27.43;12.17;;;5.90;99.90;;;;;;5009942;28;20216;-71
2022/12/01 07:59:34;;;;;;;24.17;10.83;;;5.90;99.90;;;;;;5027494;28;20229;-71
2022/12/01 08:02:00;;;;;;;20.30;10.20;;;5.90;99.90;;;;;;5018490;28;20225;-71
2022/12/01 08:04:25;;;;;;;22.60;11.60;;;5.90;99.90;;;;;;5020611;28;20225;-71
2022/12/01 08:06:51;;;;;;;22.50;11.33;;;5.90;99.90;;;;;;5029482;28;20245;-70
2022/12/01 08:09:16;;;;;;;22.00;11.40;;;5.90;99.90;;;;;;5030543;28;20225;-71
2022/12/01 08:11:42;;;;;;;22.63;11.07;;;5.90;99.90;;;;;;5028994;28;20212;-71
2022/12/01 08:14:08;;;;;;;21.00;9.90;;;5.80;99.90;;;;;;5028559;28;20228;-71
2022/12/01 08:16:33;;;;;;;22.60;11.17;;;5.70;99.90;;;;;;5021289;28;20216;-71
2022/12/01 08:19:00;;;;;;;23.50;12.83;;;5.80;99.90;;;;;;5030028;28;20208;-71
2022/12/01 08:21:25;;;;;;;18.67;10.20;;;5.80;99.90;;;;;;5026179;28;20228;-72
2022/12/01 08:23:53;;;;;;;19.37;11.87;;;5.80;99.90;;;;;;5016182;28;20475;-71
2022/12/01 08:26:20;;;;;;;23.27;12.07;;;5.80;99.90;;;;;;5003497;28;20221;-71
2022/12/01 08:28:46;;;;;;;18.50;10.77;;;5.70;99.90;;;;;;4991714;28;20445;-72
2022/12/01 08:31:20;;;;;;;19.60;10.93;;;5.70;99.90;;;;;;5006648;28;20502;-71
2022/12/01 08:33:47;;;;;;;23.20;10.60;;;5.60;99.90;;;;;;5019363;28;20474;-71
2022/12/01 08:36:13;;;;;;;19.57;10.37;;;5.60;99.90;;;;;;5027117;28;20545;-71
2022/12/01 08:38:38;;;;;;;18.63;9.43;;;5.60;99.90;;;;;;5011509;28;20452;-71
2022/12/01 08:41:07;;;;;;;19.23;10.20;;;5.50;99.90;;;;;;5012435;28;20480;-71
2022/12/01 08:43:32;;;;;;;23.30;10.40;;;5.50;99.90;;;;;;5004631;28;20232;-72
2022/12/01 08:46:01;;;;;;;18.17;10.47;;;5.60;99.90;;;;;;5007279;28;20464;-71
2022/12/01 08:48:30;;;;;;;26.93;11.30;;;5.50;99.90;;;;;;5015754;28;20221;-72
2022/12/01 08:51:09;;;;;;;22.43;10.87;;;5.50;99.90;;;;;;5025117;28;20444;-71
2022/12/01 08:53:36;;;;;;;20.50;10.23;;;5.50;99.90;;;;;;5011605;28;20455;-71
2022/12/01 08:56:18;;;;;;;18.40;9.93;;;5.50;99.90;;;;;;5017361;28;20447;-69
2022/12/01 08:58:44;;;;;;;16.10;8.57;;;5.50;99.90;;;;;;5032380;28;20446;-71
2022/12/01 09:01:12;;;;;;;26.43;10.93;;;5.50;99.90;;;;;;5024861;28;20520;-71
2022/12/01 09:03:38;;;;;;;14.93;7.53;;;5.60;99.90;;;;;;5027888;28;20630;-71
2022/12/01 09:06:07;;;;;;;18.10;9.37;;;5.50;99.90;;;;;;5026058;28;20978;-70
2022/12/01 09:08:34;;;;;;;20.20;9.23;;;5.50;99.90;;;;;;5009214;28;20831;-71
2022/12/01 09:11:04;;;;;;;18.17;9.37;;;5.50;99.90;;;;;;5020852;28;20456;-71
2022/12/01 09:13:33;;;;;;;17.70;8.87;;;5.50;99.90;;;;;;5021237;28;21006;-72
2022/12/01 09:16:07;;;;;;;18.00;9.60;;;5.60;99.90;;;;;;5020028;28;20460;-71
2022/12/01 09:18:34;;;;;;;18.67;10.83;;;5.60;99.90;;;;;;5010218;28;20444;-71
2022/12/01 09:21:07;;;;;;;17.03;8.30;;;5.60;99.90;;;;;;5017164;28;20448;-71
2022/12/01 09:23:33;;;;;;;18.13;8.70;;;5.60;99.90;;;;;;5018498;28;20456;-71
2022/12/01 09:25:59;;;;;;;18.43;8.73;;;5.50;99.90;;;;;;5043092;28;20496;-70
2022/12/01 09:28:25;;;;;;;17.23;8.90;;;5.50;99.90;;;;;;5019343;28;20217;-71
2022/12/01 09:30:50;;;;;;;16.37;9.50;;;5.50;99.90;;;;;;5020427;28;20212;-70
2022/12/01 09:33:16;;;;;;;19.67;9.63;;;5.40;99.90;;;;;;5028977;28;20243;-72
2022/12/01 09:35:41;;;;;;;22.33;10.67;;;5.50;99.90;;;;;;5028968;28;20220;-71
2022/12/01 09:38:07;;;;;;;16.60;9.07;;;5.50;99.90;;;;;;5018604;28;20239;-70
2022/12/01 09:40:37;;;;;;;17.13;9.40;;;5.50;99.90;;;;;;5018231;28;20233;-71
2022/12/01 09:43:10;;;;;;;23.00;9.90;;;5.40;99.90;;;;;;5003155;28;20240;-72
2022/12/01 09:45:40;;;;;;;14.60;7.77;;;5.30;99.90;;;;;;5020064;28;20451;-72
2022/12/01 09:48:09;;;;;;;17.90;9.53;;;5.30;99.90;;;;;;5009426;28;20480;-69
2022/12/01 09:50:36;;;;;;;18.57;9.00;;;5.40;99.90;;;;;;5025924;28;20443;-72
2022/12/01 09:53:14;;;;;;;17.63;8.00;;;5.40;99.90;;;;;;5016520;28;20464;-70
2022/12/01 09:55:40;;;;;;;21.10;9.70;;;5.40;99.90;;;;;;5041669;28;20963;-71
2022/12/01 09:58:15;;;;;;;19.37;8.60;;;5.50;99.90;;;;;;5031686;28;20483;-71
2022/12/01 10:00:42;;;;;;;20.87;11.00;;;5.40;99.90;;;;;;5022344;28;20307;-71
2022/12/01 10:03:08;;;;;;;20.30;8.87;;;5.40;99.90;;;;;;5025197;28;20522;-71
2022/12/01 10:06:07;;;;;;;15.67;8.77;;;5.30;99.90;;;;;;5026901;28;20965;-71
2022/12/01 10:08:42;;;;;;;19.87;8.97;;;5.30;99.90;;;;;;5009772;28;20509;-71
2022/12/01 10:11:19;;;;;;;21.83;10.30;;;5.30;99.90;;;;;;5012301;28;20482;-71
2022/12/01 10:13:45;;;;;;;16.20;8.60;;;5.30;99.90;;;;;;5023514;28;21091;-71
2022/12/01 10:16:14;;;;;;;17.87;9.17;;;5.30;99.90;;;;;;5006008;28;20442;-71
2022/12/01 10:19:14;;;;;;;18.60;8.60;;;5.30;99.90;;;;;;5006682;28;20221;-71
2022/12/01 10:21:58;;;;;;;19.80;8.90;;;5.40;99.90;;;;;;5017742;28;20451;-71
2022/12/01 10:24:43;;;;;;;13.23;7.00;;;5.40;99.90;;;;;;5021523;28;20439;-71
2022/12/01 10:27:11;;;;;;;17.27;8.10;;;5.50;99.90;;;;;;5029165;28;20463;-71
2022/12/01 10:29:51;;;;;;;18.33;9.30;;;5.40;99.90;;;;;;5025042;28;20882;-71
2022/12/01 10:32:31;;;;;;;15.97;9.00;;;5.40;99.90;;;;;;5018252;28;20467;-72
2022/12/01 10:34:57;;;;;;;15.17;8.63;;;5.30;99.90;;;;;;5027429;28;20962;-71
2022/12/01 10:37:25;;;;;;;15.57;9.30;;;5.40;99.90;;;;;;5026775;28;20463;-72
2022/12/01 10:39:54;;;;;;;15.03;8.47;;;5.40;99.90;;;;;;5022227;28;20451;-71
2022/12/01 10:42:54;;;;;;;18.40;9.90;;;5.40;99.90;;;;;;5023691;28;20539;-71
2022/12/01 10:45:32;;;;;;;16.90;8.90;;;5.40;99.90;;;;;;5021006;28;21035;-71
2022/12/01 10:48:19;;;;;;;17.37;9.50;;;5.40;99.90;;;;;;5019218;28;20482;-71
2022/12/01 10:50:52;;;;;;;24.10;11.10;;;5.40;99.90;;;;;;5027024;28;20516;-72
2022/12/01 10:53:27;;;;;;;14.30;7.47;;;5.40;99.90;;;;;;5019269;28;20469;-71
2022/12/01 10:56:15;;;;;;;20.07;9.63;;;5.40;99.90;;;;;;5012258;28;20464;-71
2022/12/01 10:58:56;;;;;;;19.83;8.70;;;5.40;99.90;;;;;;5033226;28;20451;-70
2022/12/01 11:01:25;;;;;;;17.50;8.13;;;5.50;99.90;;;;;;5024829;28;20470;-71
2022/12/01 11:03:57;;;;;;;15.23;8.67;;;5.40;99.90;;;;;;5026059;28;20464;-71
2022/12/01 11:06:26;;;;;;;13.70;7.57;;;5.40;99.90;;;;;;5024003;28;20471;-71
2022/12/01 11:09:05;;;;;;;15.37;8.07;;;5.30;99.90;;;;;;5027462;28;20444;-71
2022/12/01 11:11:37;;;;;;;16.00;8.93;;;5.30;99.90;;;;;;5012096;28;20439;-71
2022/12/01 11:14:21;;;;;;;17.97;8.60;;;5.30;99.90;;;;;;5015253;28;20466;-71
2022/12/01 11:16:49;;;;;;;14.80;7.37;;;5.30;99.90;;;;;;5030579;28;20565;-71
2022/12/01 11:19:20;;;;;;;12.13;7.17;;;5.40;99.90;;;;;;5015444;28;20459;-71
2022/12/01 11:21:55;;;;;;;15.37;8.47;;;5.40;99.90;;;;;;5024661;28;20454;-71
2022/12/01 11:24:29;;;;;;;16.47;8.97;;;5.40;99.90;;;;;;5026070;28;20467;-71
2022/12/01 11:26:57;;;;;;;14.63;8.40;;;5.50;99.90;;;;;;5013600;28;20466;-71
2022/12/01 11:29:31;;;;;;;15.40;7.97;;;5.40;99.90;;;;;;5023762;28;20610;-71
2022/12/01 11:31:58;;;;;;;12.03;8.10;;;5.50;99.90;;;;;;5011395;28;20459;-72
2022/12/01 11:34:30;;;;;;;16.30;8.13;;;5.50;99.90;;;;;;4994591;28;20464;-71
2022/12/01 11:36:59;;;;;;;14.40;8.17;;;5.50;99.90;;;;;;5028436;28;20475;-71
2022/12/01 11:39:35;;;;;;;17.30;8.50;;;5.50;99.90;;;;;;5030040;28;20459;-71
2022/12/01 11:42:17;;;;;;;14.83;8.47;;;5.50;99.90;;;;;;5029217;28;20448;-71
2022/12/01 11:45:11;;;;;;;15.90;7.60;;;5.60;99.90;;;;;;5021890;28;20471;-72
2022/12/01 11:48:02;;;;;;;19.97;9.53;;;5.60;99.90;;;;;;5014641;28;20471;-71
2022/12/01 11:50:31;;;;;;;21.40;8.37;;;5.60;99.90;;;;;;5010225;28;20436;-71
2022/12/01 11:52:57;;;;;;;14.03;7.77;;;5.60;99.90;;;;;;5025226;28;20521;-72
2022/12/01 11:55:26;;;;;;;18.10;8.57;;;5.60;99.90;;;;;;5010483;28;20589;-72
2022/12/01 11:57:54;;;;;;;16.53;8.20;;;5.70;99.90;;;;;;5006052;28;20535;-71
2022/12/01 12:00:21;;;;;;;14.50;7.70;;;5.70;99.90;;;;;;5020565;28;20459;-71
2022/12/01 12:03:05;;;;;;;17.50;9.60;;;5.70;99.90;;;;;;5026864;28;20609;-71
2022/12/01 12:05:55;;;;;;;15.83;7.13;;;5.70;99.90;;;;;;5015631;28;21309;-71
2022/12/01 12:08:41;;;;;;;17.00;9.70;;;5.60;99.90;;;;;;5021622;28;20464;-71
2022/12/01 12:11:13;;;;;;;21.43;9.87;;;5.70;99.90;;;;;;5029165;28;20483;-71
2022/12/01 12:13:48;;;;;;;18.10;9.30;;;5.60;99.90;;;;;;5029144;28;20473;-72
2022/12/01 12:16:21;;;;;;;18.77;8.73;;;5.60;99.90;;;;;;5020462;28;20538;-71
2022/12/01 12:19:21;;;;;;;29.33;12.43;;;5.70;99.90;;;;;;5020636;28;20880;-71
2022/12/01 12:21:46;;;;;;;26.07;12.17;;;5.60;99.90;;;;;;5028124;28;20455;-71
2022/12/01 12:24:18;;;;;;;18.67;9.60;;;5.60;99.90;;;;;;5002907;28;20456;-71
2022/12/01 12:26:53;;;;;;;23.23;11.03;;;5.60;99.90;;;;;;5020038;28;20303;-71
2022/12/01 12:30:09;;;;;;;19.70;10.03;;;5.70;99.90;;;;;;5021258;28;20989;-71
2022/12/01 12:32:52;;;;;;;21.20;11.07;;;5.70;99.90;;;;;;5016152;28;20459;-71
2022/12/01 12:35:32;;;;;;;22.27;9.30;;;5.70;99.90;;;;;;5003240;28;20456;-72
2022/12/01 12:38:19;;;;;;;22.93;11.53;;;5.70;99.90;;;;;;5025155;28;20474;-71
2022/12/01 12:41:07;;;;;;;23.47;10.50;;;5.70;99.90;;;;;;5018948;28;20470;-72
2022/12/01 12:43:53;;;;;;;23.23;11.47;;;5.70;99.90;;;;;;5012466;28;20462;-71
2022/12/01 12:46:30;;;;;;;18.77;10.27;;;5.70;99.90;;;;;;5019701;28;20535;-71
2022/12/01 12:49:16;;;;;;;24.90;11.73;;;5.70;99.90;;;;;;5004784;28;20558;-71
2022/12/01 12:51:54;;;;;;;26.20;12.60;;;5.70;99.90;;;;;;5009950;28;20451;-71
2022/12/01 12:55:00;;;;;;;28.67;12.17;;;5.70;99.90;;;;;;5026419;28;20459;-70
2022/12/01 12:57:36;;;;;;;23.87;9.73;;;5.70;99.90;;;;;;5020770;28;20606;-71
2022/12/01 13:00:07;;;;;;;20.43;10.67;;;5.80;99.90;;;;;;5019678;28;20455;-71
2022/12/01 13:02:54;;;;;;;25.03;10.20;;;5.70;99.90;;;;;;5021448;28;20562;-70
2022/12/01 13:05:34;;;;;;;19.47;9.87;;;5.70;99.90;;;;;;5027819;28;20478;-71
2022/12/01 13:08:02;;;;;;;23.00;10.70;;;5.70;99.90;;;;;;5020975;28;20463;-71